Pagrindinis puslapis
METAR-TAF:

METAR-TAF

Oro uostai :

Sjenfuegosas, Kuba

platuma: 22-09N, ilguma: 080-24W, Aukštis: 39 m

Dabartinis oras

Ataskaita buvo paskelbta 12 minutes, ne 00:59 UTC
Vėjas 5 kt iš Pietų/Pietvakarių
Temperatūra 28°C
Drėgmė 79%
Slėgis 1013 hPa

METAR: MUCF 100059Z AUTO 21005KT 28/24 Q1013

Laikas: 21:11 (01:11 UTC)


TAF: trūkstamas

Orai ataskaitas ir orų prognozės (METAR, TAF).

turimą stotys yra geltonos ir raudonos taškus žemėlapyje.

Perkelti pele per norėdami pamatyti stoties vardą.

Tada spustelėkite, norėdami matyti oro stebėjimo ir prognozės.

Norėdami pakeisti žemėlapį: spustelėkite ant žalios mygtukų su juodo kryžiaus žemyn,; žalią mygtuką su brūkšneliu, jei norite nutolinti; arba žalių rodyklių gretimoms žemėlapius.


METAR-TAF: